createdAt,value
2017-12-31T00:00:33.725Z,52.30
2017-12-31T00:05:36.288Z,52.30
2017-12-31T00:10:39.867Z,52.30
2017-12-31T00:15:43.434Z,52.30
2017-12-31T00:20:46.028Z,52.30
2017-12-31T00:25:48.624Z,52.30
2017-12-31T00:30:51.257Z,52.30
2017-12-31T00:35:53.837Z,52.20
2017-12-31T00:40:56.404Z,52.30
2017-12-31T00:45:59.740Z,52.30
2017-12-31T00:51:02.331Z,52.30
2017-12-31T00:56:04.948Z,52.30
2017-12-31T01:01:07.544Z,52.30
2017-12-31T01:06:10.117Z,52.30
2017-12-31T01:11:12.733Z,52.30
2017-12-31T01:16:15.300Z,52.20
2017-12-31T01:21:17.934Z,52.20
2017-12-31T01:26:20.539Z,52.30
2017-12-31T01:31:23.205Z,52.20
2017-12-31T01:36:26.141Z,52.30
2017-12-31T01:41:28.711Z,52.20
2017-12-31T01:46:31.342Z,52.20
2017-12-31T01:51:34.740Z,52.20
2017-12-31T01:56:37.362Z,52.20
2017-12-31T02:01:41.088Z,52.20
2017-12-31T02:06:44.569Z,52.30
2017-12-31T02:11:48.613Z,52.20
2017-12-31T02:16:51.269Z,52.10
2017-12-31T02:21:54.000Z,52.20
2017-12-31T02:26:59.359Z,52.20
2017-12-31T02:32:01.938Z,52.20
2017-12-31T02:37:04.489Z,52.30
2017-12-31T02:42:07.102Z,52.20
2017-12-31T02:47:09.721Z,52.20
2017-12-31T02:52:12.306Z,52.10
2017-12-31T02:57:15.130Z,52.20
2017-12-31T03:02:17.737Z,52.80
2017-12-31T03:07:20.406Z,52.10
2017-12-31T03:12:23.409Z,52.10
2017-12-31T03:17:26.023Z,52.80
2017-12-31T03:22:28.722Z,52.10
2017-12-31T03:27:31.321Z,52.10
2017-12-31T03:32:33.952Z,52.10
2017-12-31T03:37:36.641Z,52.20
2017-12-31T03:42:39.429Z,52.10
2017-12-31T03:47:42.838Z,52.20
2017-12-31T03:52:45.451Z,52.10
2017-12-31T03:57:48.028Z,52.10
2017-12-31T04:02:50.622Z,52.20
2017-12-31T04:07:53.296Z,52.20
2017-12-31T04:12:55.995Z,52.10
2017-12-31T04:17:58.612Z,52.10
2017-12-31T04:23:02.372Z,52.10
2017-12-31T04:28:05.032Z,52.10
2017-12-31T04:33:07.702Z,52.10
2017-12-31T04:38:10.285Z,52.20
2017-12-31T04:43:12.894Z,52.10
2017-12-31T04:48:15.493Z,52.10
2017-12-31T04:53:19.098Z,52.10
2017-12-31T04:58:21.706Z,52.10
2017-12-31T05:03:25.228Z,52.10
2017-12-31T05:08:27.923Z,52.10
2017-12-31T05:13:30.589Z,52.10
2017-12-31T05:18:33.217Z,52.10
2017-12-31T05:23:36.105Z,52.10
2017-12-31T05:28:38.683Z,52.10
2017-12-31T05:33:41.548Z,52.10
2017-12-31T05:38:44.121Z,52.10
2017-12-31T05:43:47.469Z,52.10
2017-12-31T05:48:50.033Z,52.10
2017-12-31T05:53:52.898Z,52.10
2017-12-31T05:58:55.801Z,52.10
2017-12-31T06:03:58.433Z,52.10
2017-12-31T06:09:01.093Z,52.10
2017-12-31T06:14:03.744Z,52.10
2017-12-31T06:19:06.322Z,52.10
2017-12-31T06:24:13.480Z,52.10
2017-12-31T06:29:16.282Z,52.10
2017-12-31T06:34:18.849Z,52.10
2017-12-31T06:39:21.525Z,52.10
2017-12-31T06:44:24.207Z,52.10
2017-12-31T06:49:26.800Z,52.00
2017-12-31T06:54:29.494Z,52.00
2017-12-31T06:59:32.864Z,52.00
2017-12-31T07:04:36.250Z,52.00
2017-12-31T07:09:38.871Z,52.00
2017-12-31T07:14:41.491Z,52.00
2017-12-31T07:19:44.115Z,52.00
2017-12-31T07:24:47.497Z,52.00
2017-12-31T07:29:50.122Z,51.90
2017-12-31T07:34:53.505Z,52.00
2017-12-31T07:39:56.122Z,52.00
2017-12-31T07:44:58.714Z,51.90
2017-12-31T07:50:02.025Z,51.90
2017-12-31T07:55:04.955Z,52.00
2017-12-31T08:00:07.708Z,51.90
2017-12-31T08:05:10.324Z,52.00
2017-12-31T08:10:13.016Z,51.90
2017-12-31T08:15:17.200Z,51.90
2017-12-31T08:20:19.899Z,51.90
2017-12-31T08:25:22.471Z,51.90
2017-12-31T08:30:25.061Z,51.90
2017-12-31T08:35:27.659Z,51.90
2017-12-31T08:40:30.245Z,51.90
2017-12-31T08:45:32.845Z,51.90
2017-12-31T08:50:35.455Z,51.90
2017-12-31T08:55:38.137Z,52.00
2017-12-31T09:00:40.755Z,51.90
2017-12-31T09:05:43.603Z,51.90
2017-12-31T09:10:46.845Z,51.90
2017-12-31T09:15:50.293Z,51.90
2017-12-31T09:20:52.973Z,51.90
2017-12-31T09:25:55.697Z,51.80
2017-12-31T09:31:01.919Z,51.80
2017-12-31T09:36:04.652Z,51.80
2017-12-31T09:41:07.953Z,51.80
2017-12-31T09:46:11.208Z,51.80
2017-12-31T09:51:14.621Z,51.80
2017-12-31T09:56:17.444Z,51.80
2017-12-31T10:01:20.430Z,51.80
2017-12-31T10:06:23.221Z,51.80
2017-12-31T10:11:26.069Z,51.80
2017-12-31T10:16:28.760Z,51.80
2017-12-31T10:21:31.352Z,51.80
2017-12-31T10:26:34.045Z,51.80
2017-12-31T10:31:37.076Z,51.80
2017-12-31T10:36:39.730Z,51.80
2017-12-31T10:41:43.194Z,51.80
2017-12-31T10:46:45.835Z,51.70
2017-12-31T10:51:48.457Z,51.70
2017-12-31T10:56:51.065Z,51.70
2017-12-31T11:01:53.693Z,51.70
2017-12-31T11:06:56.327Z,51.70
2017-12-31T11:11:59.029Z,51.70
2017-12-31T11:17:01.754Z,51.70
2017-12-31T11:22:06.157Z,51.80
2017-12-31T11:27:09.943Z,51.70
2017-12-31T11:32:12.974Z,51.80
2017-12-31T11:37:15.673Z,51.70
2017-12-31T11:42:18.922Z,51.70
2017-12-31T11:47:21.622Z,51.80
2017-12-31T11:52:25.010Z,51.70
2017-12-31T11:57:28.036Z,51.70
2017-12-31T12:02:31.322Z,51.70
2017-12-31T12:07:33.974Z,51.70
2017-12-31T12:12:36.612Z,51.70
2017-12-31T12:17:39.320Z,51.60
2017-12-31T12:22:41.981Z,51.60
2017-12-31T12:27:44.602Z,51.60
2017-12-31T12:32:47.586Z,51.60
2017-12-31T12:37:50.172Z,51.60
2017-12-31T12:42:52.896Z,51.50
2017-12-31T12:47:56.698Z,51.50
2017-12-31T12:53:00.284Z,51.50
2017-12-31T12:58:02.901Z,51.50
2017-12-31T13:03:05.536Z,51.50
2017-12-31T13:08:08.198Z,51.50
2017-12-31T13:13:10.824Z,51.50
2017-12-31T13:18:13.979Z,51.50
2017-12-31T13:23:16.557Z,51.50
2017-12-31T13:28:19.262Z,51.50
2017-12-31T13:33:21.855Z,51.50
2017-12-31T13:38:24.788Z,51.50
2017-12-31T13:43:27.341Z,51.50
2017-12-31T13:48:29.950Z,51.50
2017-12-31T13:53:33.458Z,51.50
2017-12-31T13:58:36.313Z,51.50
2017-12-31T14:03:38.937Z,51.50
2017-12-31T14:08:41.913Z,52.10
2017-12-31T14:13:44.570Z,51.50
2017-12-31T14:18:47.199Z,51.40
2017-12-31T14:23:49.772Z,51.50
2017-12-31T14:28:52.431Z,51.50
2017-12-31T14:33:55.731Z,51.40
2017-12-31T14:38:58.550Z,51.50
2017-12-31T14:44:01.143Z,51.40
2017-12-31T14:49:04.536Z,51.40
2017-12-31T14:54:07.138Z,51.40
2017-12-31T14:59:10.543Z,51.50
2017-12-31T15:04:13.173Z,51.30
2017-12-31T15:09:15.830Z,51.30
2017-12-31T15:14:18.446Z,51.30
2017-12-31T15:19:22.078Z,51.30
2017-12-31T15:24:24.875Z,51.30
2017-12-31T15:29:27.512Z,51.30
2017-12-31T15:34:31.414Z,51.40
2017-12-31T15:39:34.107Z,51.30
2017-12-31T15:44:36.819Z,51.30
2017-12-31T15:49:39.686Z,51.30
2017-12-31T15:54:42.327Z,51.40
2017-12-31T15:59:47.587Z,51.40
2017-12-31T16:04:50.746Z,51.30
2017-12-31T16:09:55.412Z,51.30
2017-12-31T16:14:58.389Z,51.30
2017-12-31T16:20:01.766Z,51.30
2017-12-31T16:25:04.357Z,51.30
2017-12-31T16:30:07.634Z,51.90
2017-12-31T16:35:10.328Z,51.30
2017-12-31T16:40:14.736Z,51.30
2017-12-31T16:45:18.159Z,51.30
2017-12-31T16:50:21.062Z,51.20
2017-12-31T16:55:23.960Z,51.20
2017-12-31T17:00:27.331Z,51.20
2017-12-31T17:05:30.038Z,51.20
2017-12-31T17:10:37.620Z,51.20
2017-12-31T17:15:44.371Z,51.20
2017-12-31T17:20:50.927Z,51.20
2017-12-31T17:25:53.968Z,51.20
2017-12-31T17:31:00.320Z,51.20
2017-12-31T17:36:04.018Z,51.10
2017-12-31T17:41:06.728Z,51.20
2017-12-31T17:46:09.761Z,51.20
2017-12-31T17:51:12.769Z,51.10
2017-12-31T17:56:15.465Z,51.20
2017-12-31T18:01:18.162Z,51.20
2017-12-31T18:06:21.228Z,51.20
2017-12-31T18:11:24.169Z,51.10
2017-12-31T18:16:27.686Z,51.20
2017-12-31T18:21:31.539Z,51.00
2017-12-31T18:26:34.271Z,51.20
2017-12-31T18:31:36.890Z,51.20
2017-12-31T18:36:39.665Z,51.20
2017-12-31T18:41:42.377Z,51.20
2017-12-31T18:46:47.816Z,51.10
2017-12-31T18:51:50.742Z,51.10
2017-12-31T18:56:53.438Z,51.70
2017-12-31T19:01:57.128Z,51.10
2017-12-31T19:07:00.442Z,51.20
2017-12-31T19:12:03.229Z,51.00
2017-12-31T19:17:06.196Z,51.00
2017-12-31T19:22:08.981Z,51.10
2017-12-31T19:27:11.610Z,51.10
2017-12-31T19:32:15.042Z,51.10
2017-12-31T19:37:17.666Z,51.10
2017-12-31T19:42:24.735Z,51.00
2017-12-31T19:47:27.486Z,51.00
2017-12-31T19:52:30.110Z,51.00
2017-12-31T19:57:32.722Z,51.00
2017-12-31T20:02:35.315Z,51.00
2017-12-31T20:07:38.080Z,51.00
2017-12-31T20:12:40.816Z,51.00
2017-12-31T20:17:43.485Z,51.00
2017-12-31T20:22:46.129Z,51.00
2017-12-31T20:27:48.722Z,51.00
2017-12-31T20:32:51.989Z,51.10
2017-12-31T20:37:54.646Z,51.00
2017-12-31T20:42:57.843Z,51.00
2017-12-31T20:48:00.564Z,51.00
2017-12-31T20:53:05.063Z,50.90
2017-12-31T20:58:08.353Z,51.00
2017-12-31T21:03:11.142Z,51.00
2017-12-31T21:08:13.833Z,50.90
2017-12-31T21:13:17.146Z,51.00
2017-12-31T21:18:19.717Z,51.00
2017-12-31T21:23:22.299Z,51.00
2017-12-31T21:28:24.992Z,51.00
2017-12-31T21:33:27.838Z,51.00
2017-12-31T21:38:30.504Z,51.00
2017-12-31T21:43:33.336Z,50.90
2017-12-31T21:48:35.929Z,50.90
2017-12-31T21:53:38.639Z,51.00
2017-12-31T21:58:41.285Z,50.90
2017-12-31T22:03:44.534Z,51.00
2017-12-31T22:08:47.775Z,50.90
2017-12-31T22:13:50.399Z,51.50
2017-12-31T22:18:53.099Z,50.90
2017-12-31T22:23:55.996Z,50.90
2017-12-31T22:28:58.687Z,50.90
2017-12-31T22:34:01.290Z,50.90
2017-12-31T22:39:03.906Z,51.00
2017-12-31T22:44:07.275Z,50.90
2017-12-31T22:49:10.592Z,51.00
2017-12-31T22:54:13.180Z,51.00
2017-12-31T22:59:15.860Z,50.80
2017-12-31T23:04:18.953Z,50.90
2017-12-31T23:09:21.542Z,51.00
2017-12-31T23:14:24.303Z,50.90
2017-12-31T23:19:26.929Z,50.90
2017-12-31T23:24:31.223Z,50.80
2017-12-31T23:29:34.622Z,50.80
2017-12-31T23:34:37.503Z,50.90
2017-12-31T23:39:40.236Z,50.80
2017-12-31T23:44:42.950Z,50.90
2017-12-31T23:49:46.337Z,50.90
2017-12-31T23:54:50.223Z,50.90
2017-12-31T23:59:52.860Z,50.90
